createdAt,value
2023-05-07T00:02:42.518Z,95731.97
2023-05-07T00:05:28.048Z,95740.63
2023-05-07T00:08:13.514Z,95744.31
2023-05-07T00:10:58.447Z,95739.81
2023-05-07T00:13:43.955Z,95739.00
2023-05-07T00:16:29.230Z,95739.00
2023-05-07T00:19:14.642Z,95744.91
2023-05-07T00:21:59.890Z,95735.31
2023-05-07T00:24:45.208Z,95735.31
2023-05-07T00:27:30.465Z,95731.63
2023-05-07T00:30:15.828Z,95723.88
2023-05-07T00:33:00.969Z,95723.06
2023-05-07T00:35:46.245Z,95722.25
2023-05-07T00:38:31.438Z,95722.69
2023-05-07T00:41:16.878Z,95738.75
2023-05-07T00:44:03.578Z,95737.56
2023-05-07T00:46:50.960Z,95746.00
2023-05-07T00:49:42.107Z,95749.53
2023-05-07T00:52:28.777Z,95747.31
2023-05-07T00:55:15.569Z,95746.72
2023-05-07T00:58:01.130Z,95742.47
2023-05-07T01:00:46.232Z,95754.00
2023-05-07T01:03:31.601Z,95744.69
2023-05-07T01:06:18.778Z,95743.97
2023-05-07T01:09:05.701Z,95736.91
2023-05-07T01:11:52.827Z,95738.19
2023-05-07T01:14:38.352Z,95735.84
2023-05-07T01:17:24.125Z,95744.91
2023-05-07T01:20:11.488Z,95747.84
2023-05-07T01:22:58.552Z,95747.09
2023-05-07T01:25:43.759Z,95755.50
2023-05-07T01:28:29.095Z,95753.09
2023-05-07T01:31:15.379Z,95759.63
2023-05-07T01:34:04.221Z,95761.31
2023-05-07T01:36:49.910Z,95756.66
2023-05-07T01:39:37.643Z,95761.16
2023-05-07T01:42:23.036Z,95762.78
2023-05-07T01:45:08.877Z,95756.28
2023-05-07T01:47:56.343Z,95763.22
2023-05-07T01:50:42.464Z,95758.78
2023-05-07T01:53:29.155Z,95758.84
2023-05-07T01:56:14.338Z,95753.91
2023-05-07T01:58:59.606Z,95768.56
2023-05-07T02:01:44.975Z,95758.34
2023-05-07T02:04:30.291Z,95755.84
2023-05-07T02:07:15.762Z,95759.91
2023-05-07T02:10:00.895Z,95750.91
2023-05-07T02:12:46.134Z,95750.09
2023-05-07T02:15:31.227Z,95754.97
2023-05-07T02:18:17.642Z,95754.16
2023-05-07T02:21:03.007Z,95750.69
2023-05-07T02:23:48.103Z,95749.31
2023-05-07T02:26:33.498Z,95744.38
2023-05-07T02:29:18.810Z,95739.84
2023-05-07T02:32:04.181Z,95736.25
2023-05-07T02:34:51.995Z,95732.56
2023-05-07T02:37:37.183Z,95735.22
2023-05-07T02:40:22.680Z,95745.22
2023-05-07T02:43:08.179Z,95752.19
2023-05-07T02:46:07.547Z,95756.88
2023-05-07T02:48:53.011Z,95755.84
2023-05-07T02:51:38.272Z,95753.31
2023-05-07T02:54:23.513Z,95765.00
2023-05-07T02:57:08.774Z,95762.94
2023-05-07T02:59:54.013Z,95767.63
2023-05-07T03:02:39.342Z,95767.78
2023-05-07T03:05:24.660Z,95765.28
2023-05-07T03:08:10.687Z,95774.09
2023-05-07T03:10:56.006Z,95771.66
2023-05-07T03:13:41.396Z,95769.00
2023-05-07T03:16:26.948Z,95775.16
2023-05-07T03:19:12.198Z,95770.69
2023-05-07T03:21:57.500Z,95776.16
2023-05-07T03:24:43.451Z,95783.69
2023-05-07T03:27:28.841Z,95782.81
2023-05-07T03:30:14.194Z,95791.97
2023-05-07T03:32:59.483Z,95791.53
2023-05-07T03:35:44.790Z,95791.09
2023-05-07T03:38:30.006Z,95792.13
2023-05-07T03:41:15.477Z,95792.13
2023-05-07T03:44:00.735Z,95802.75
2023-05-07T03:46:46.235Z,95799.06
2023-05-07T03:49:31.490Z,95802.16
2023-05-07T03:52:16.971Z,95813.38
2023-05-07T03:55:02.310Z,95802.97
2023-05-07T03:57:47.800Z,95798.84
2023-05-07T04:00:35.104Z,95801.09
2023-05-07T04:03:20.358Z,95803.16
2023-05-07T04:06:05.529Z,95807.91
2023-05-07T04:08:51.014Z,95808.69
2023-05-07T04:11:37.033Z,95807.06
2023-05-07T04:14:22.306Z,95808.16
2023-05-07T04:17:08.221Z,95807.31
2023-05-07T04:19:53.150Z,95816.28
2023-05-07T04:22:38.571Z,95809.41
2023-05-07T04:25:27.793Z,95805.09
2023-05-07T04:28:13.547Z,95813.59
2023-05-07T04:30:58.812Z,95813.53
2023-05-07T04:33:43.856Z,95819.81
2023-05-07T04:36:30.183Z,95824.22
2023-05-07T04:39:15.983Z,95820.91
2023-05-07T04:42:01.629Z,95823.72
2023-05-07T04:44:46.751Z,95833.47
2023-05-07T04:47:32.078Z,95825.91
2023-05-07T04:50:18.742Z,95832.59
2023-05-07T04:53:04.111Z,95835.41
2023-05-07T04:55:49.335Z,95840.72
2023-05-07T04:58:34.686Z,95842.34
2023-05-07T05:01:20.024Z,95837.47
2023-05-07T05:04:05.475Z,95835.84
2023-05-07T05:06:50.752Z,95838.34
2023-05-07T05:09:35.913Z,95848.81
2023-05-07T05:12:21.367Z,95840.84
2023-05-07T05:15:07.303Z,95839.00
2023-05-07T05:17:52.837Z,95846.38
2023-05-07T05:20:38.009Z,95851.31
2023-05-07T05:23:23.303Z,95845.91
2023-05-07T05:26:08.589Z,95854.56
2023-05-07T05:28:53.745Z,95853.78
2023-05-07T05:31:39.075Z,95853.56
2023-05-07T05:34:24.325Z,95860.31
2023-05-07T05:37:09.653Z,95861.50
2023-05-07T05:39:55.826Z,95867.44
2023-05-07T05:42:41.200Z,95864.53
2023-05-07T05:45:26.874Z,95869.63
2023-05-07T05:48:12.938Z,95863.13
2023-05-07T05:50:58.208Z,95863.34
2023-05-07T05:53:43.515Z,95869.69
2023-05-07T05:56:28.926Z,95865.41
2023-05-07T05:59:14.043Z,95875.00
2023-05-07T06:01:59.447Z,95861.88
2023-05-07T06:04:44.635Z,95877.38
2023-05-07T06:07:29.742Z,95868.38
2023-05-07T06:10:15.112Z,95875.47
2023-05-07T06:13:00.468Z,95872.81
2023-05-07T06:15:45.767Z,95871.19
2023-05-07T06:18:31.201Z,95876.50
2023-05-07T06:21:17.035Z,95883.44
2023-05-07T06:24:03.322Z,95880.78
2023-05-07T06:26:48.866Z,95883.00
2023-05-07T06:29:34.770Z,95882.56
2023-05-07T06:32:20.164Z,95887.03
2023-05-07T06:35:05.799Z,95880.44
2023-05-07T06:37:51.177Z,95885.69
2023-05-07T06:40:36.254Z,95889.56
2023-05-07T06:43:21.106Z,95891.75
2023-05-07T06:46:06.426Z,95889.72
2023-05-07T06:48:51.971Z,95888.28
2023-05-07T06:51:37.267Z,95894.63
2023-05-07T06:54:24.312Z,95898.34
2023-05-07T06:57:10.001Z,95892.00
2023-05-07T06:59:55.107Z,95895.03
2023-05-07T07:02:40.651Z,95895.47
2023-05-07T07:05:26.280Z,95907.91
2023-05-07T07:08:11.725Z,95914.63
2023-05-07T07:10:57.029Z,95905.44
2023-05-07T07:13:43.788Z,95902.72
2023-05-07T07:16:29.113Z,95905.53
2023-05-07T07:19:16.237Z,95914.09
2023-05-07T07:22:01.919Z,95920.03
2023-05-07T07:24:47.156Z,95918.81
2023-05-07T07:27:32.562Z,95920.88
2023-05-07T07:30:17.809Z,95927.69
2023-05-07T07:33:04.322Z,95925.25
2023-05-07T07:35:49.416Z,95924.06
2023-05-07T07:38:35.150Z,95932.69
2023-05-07T07:41:20.649Z,95923.75
2023-05-07T07:44:08.565Z,95917.94
2023-05-07T07:46:53.849Z,95920.00
2023-05-07T07:49:39.411Z,95931.22
2023-05-07T07:52:24.644Z,95935.16
2023-05-07T07:55:10.333Z,95930.91
2023-05-07T07:57:55.470Z,95930.13
2023-05-07T08:00:40.958Z,95941.13
2023-05-07T08:03:26.312Z,95948.94
2023-05-07T08:06:11.662Z,95950.22
2023-05-07T08:08:56.969Z,95947.41
2023-05-07T08:11:42.429Z,95944.16
2023-05-07T08:14:29.308Z,95961.69
2023-05-07T08:17:16.972Z,95969.19
2023-05-07T08:20:02.344Z,95959.19
2023-05-07T08:22:47.638Z,95963.66
2023-05-07T08:25:35.086Z,95965.13
2023-05-07T08:28:21.337Z,95962.09
2023-05-07T08:31:06.748Z,95979.88
2023-05-07T08:33:52.015Z,95977.69
2023-05-07T08:36:37.293Z,95987.91
2023-05-07T08:39:22.680Z,95992.81
2023-05-07T08:42:10.037Z,95988.75
2023-05-07T08:45:00.313Z,96007.72
2023-05-07T08:47:48.103Z,96002.00
2023-05-07T08:50:37.259Z,96003.84
2023-05-07T08:53:22.760Z,96010.19
2023-05-07T08:56:09.820Z,96010.00
2023-05-07T08:58:57.706Z,96015.31
2023-05-07T09:01:43.376Z,96015.53
2023-05-07T09:04:28.936Z,96028.00
2023-05-07T09:07:14.440Z,96026.38
2023-05-07T09:10:02.214Z,96032.06
2023-05-07T09:12:48.144Z,96030.03
2023-05-07T09:15:33.435Z,96027.59
2023-05-07T09:18:18.704Z,96040.84
2023-05-07T09:21:04.096Z,96045.53
2023-05-07T09:23:51.754Z,96059.38
2023-05-07T09:26:36.865Z,96058.78
2023-05-07T09:29:22.282Z,96058.16
2023-05-07T09:32:08.909Z,96062.66
2023-05-07T09:34:54.360Z,96072.44
2023-05-07T09:37:39.808Z,96079.75
2023-05-07T09:40:27.377Z,96075.84
2023-05-07T09:43:14.759Z,96083.38
2023-05-07T09:46:03.417Z,96088.47
2023-05-07T09:48:49.849Z,96086.66
2023-05-07T09:51:46.789Z,96089.72
2023-05-07T09:54:33.948Z,96105.81
2023-05-07T09:57:21.626Z,96099.28
2023-05-07T10:00:10.357Z,96102.72
2023-05-07T10:02:58.888Z,96103.31
2023-05-07T10:05:45.617Z,96109.00
2023-05-07T10:08:31.900Z,96108.78
2023-05-07T10:11:17.614Z,96102.69
2023-05-07T10:14:09.801Z,96109.59
2023-05-07T10:16:55.532Z,96109.75
2023-05-07T10:19:42.135Z,96109.75
2023-05-07T10:22:28.588Z,96110.53
2023-05-07T10:25:26.809Z,96111.94
2023-05-07T10:28:13.334Z,96112.78
2023-05-07T10:31:10.239Z,96105.28
2023-05-07T10:33:57.806Z,96115.47
2023-05-07T10:36:43.484Z,96115.84
2023-05-07T10:39:28.844Z,96114.59
2023-05-07T10:42:15.995Z,96103.19
2023-05-07T10:45:14.260Z,96109.50
2023-05-07T10:48:27.196Z,96110.31
2023-05-07T10:51:22.952Z,96118.25
2023-05-07T10:54:14.506Z,96126.81
2023-05-07T10:57:38.009Z,96118.25
2023-05-07T11:00:38.986Z,96120.44
2023-05-07T11:03:25.987Z,96123.31
2023-05-07T11:06:12.728Z,96118.66
2023-05-07T11:08:59.062Z,96122.13
2023-05-07T11:11:56.856Z,96125.81
2023-05-07T11:14:42.351Z,96126.84
2023-05-07T11:17:28.210Z,96126.84
2023-05-07T11:20:13.627Z,96130.50
2023-05-07T11:22:59.058Z,96136.22
2023-05-07T11:25:44.806Z,96146.38
2023-05-07T11:28:31.327Z,96145.75
2023-05-07T11:31:22.558Z,96145.16
2023-05-07T11:34:08.995Z,96142.91
2023-05-07T11:36:54.673Z,96144.69
2023-05-07T11:39:39.677Z,96152.81
2023-05-07T11:42:31.695Z,96155.28
2023-05-07T11:45:26.359Z,96154.69
2023-05-07T11:48:11.511Z,96159.75
2023-05-07T11:50:59.761Z,96163.97
2023-05-07T11:53:46.503Z,96169.22
2023-05-07T11:56:36.359Z,96169.19
2023-05-07T11:59:21.658Z,96173.09
2023-05-07T12:02:08.488Z,96172.53
2023-05-07T12:04:55.218Z,96174.16
2023-05-07T12:07:40.775Z,96170.72
2023-05-07T12:10:26.458Z,96171.06
2023-05-07T12:13:21.034Z,96173.31
2023-05-07T12:16:07.692Z,96170.03
2023-05-07T12:18:56.035Z,96169.41
2023-05-07T12:21:41.975Z,96180.38
2023-05-07T12:24:27.213Z,96184.59
2023-05-07T12:27:12.745Z,96191.97
2023-05-07T12:30:00.272Z,96186.28
2023-05-07T12:32:46.678Z,96189.50
2023-05-07T12:35:36.859Z,96197.09
2023-05-07T12:38:22.538Z,96193.00
2023-05-07T12:41:09.985Z,96193.00
2023-05-07T12:43:58.734Z,96196.13
2023-05-07T12:46:44.287Z,96206.19
2023-05-07T12:49:29.506Z,96191.97
2023-05-07T12:52:14.957Z,96199.34
2023-05-07T12:55:07.695Z,96201.97
2023-05-07T12:57:54.531Z,96206.13
2023-05-07T13:00:39.962Z,96201.53
2023-05-07T13:03:37.460Z,96206.19
2023-05-07T13:06:22.910Z,96213.00
2023-05-07T13:09:08.103Z,96217.13
2023-05-07T13:11:53.547Z,96209.34
2023-05-07T13:14:38.834Z,96220.25
2023-05-07T13:17:24.229Z,96221.56
2023-05-07T13:20:13.914Z,96224.03
2023-05-07T13:23:02.097Z,96222.13
2023-05-07T13:25:47.533Z,96227.41
2023-05-07T13:28:32.710Z,96220.25
2023-05-07T13:31:18.876Z,96228.63
2023-05-07T13:34:04.113Z,96221.03
2023-05-07T13:36:49.574Z,96223.03
2023-05-07T13:39:34.996Z,96226.94
2023-05-07T13:42:20.522Z,96231.06
2023-05-07T13:45:06.129Z,96225.75
2023-05-07T13:47:51.662Z,96232.28
2023-05-07T13:50:36.935Z,96224.94
2023-05-07T13:53:22.186Z,96232.59
2023-05-07T13:56:07.468Z,96239.81
2023-05-07T13:59:00.165Z,96240.41
2023-05-07T14:01:46.078Z,96244.53
2023-05-07T14:04:32.352Z,96247.69
2023-05-07T14:07:17.692Z,96249.13
2023-05-07T14:10:03.608Z,96262.59
2023-05-07T14:12:48.976Z,96258.63
2023-05-07T14:15:34.529Z,96258.34
2023-05-07T14:18:19.752Z,96257.44
2023-05-07T14:21:07.360Z,96260.81
2023-05-07T14:23:52.934Z,96267.59
2023-05-07T14:26:38.255Z,96264.28
2023-05-07T14:29:24.476Z,96267.00
2023-05-07T14:32:10.130Z,96263.63
2023-05-07T14:34:55.101Z,96276.56
2023-05-07T14:37:40.353Z,96286.91
2023-05-07T14:40:25.642Z,96281.09
2023-05-07T14:43:11.256Z,96278.47
2023-05-07T14:45:56.312Z,96281.53
2023-05-07T14:48:41.619Z,96270.25
2023-05-07T14:51:29.158Z,96290.94
2023-05-07T14:54:15.166Z,96291.88
2023-05-07T14:57:00.905Z,96284.25
2023-05-07T14:59:46.325Z,96290.88
2023-05-07T15:02:31.688Z,96294.06
2023-05-07T15:05:18.512Z,96295.38
2023-05-07T15:08:03.972Z,96296.03
2023-05-07T15:10:50.630Z,96305.25
2023-05-07T15:13:35.783Z,96294.03
2023-05-07T15:16:21.399Z,96298.22
2023-05-07T15:19:06.997Z,96304.50
2023-05-07T15:21:52.828Z,96307.22
2023-05-07T15:24:40.104Z,96308.06
2023-05-07T15:27:25.734Z,96308.34
2023-05-07T15:30:11.876Z,96324.53
2023-05-07T15:32:57.322Z,96322.25
2023-05-07T15:35:42.688Z,96317.34
2023-05-07T15:38:29.232Z,96313.47
2023-05-07T15:41:14.660Z,96317.06
2023-05-07T15:43:59.934Z,96329.88
2023-05-07T15:46:45.326Z,96318.97
2023-05-07T15:49:30.631Z,96328.16
2023-05-07T15:52:16.848Z,96325.75
2023-05-07T15:55:03.787Z,96327.59
2023-05-07T15:57:49.454Z,96321.78
2023-05-07T16:00:36.630Z,96328.97
2023-05-07T16:03:23.004Z,96328.00
2023-05-07T16:06:08.617Z,96336.06
2023-05-07T16:08:55.351Z,96333.25
2023-05-07T16:11:40.839Z,96346.25
2023-05-07T16:14:25.975Z,96345.69
2023-05-07T16:17:11.202Z,96356.03
2023-05-07T16:19:59.087Z,96363.09
2023-05-07T16:22:44.515Z,96353.75
2023-05-07T16:25:30.485Z,96345.66
2023-05-07T16:28:16.041Z,96350.81
2023-05-07T16:31:19.637Z,96352.22
2023-05-07T16:34:05.674Z,96361.25
2023-05-07T16:36:51.050Z,96348.59
2023-05-07T16:39:36.441Z,96357.38
2023-05-07T16:42:21.834Z,96353.16
2023-05-07T16:45:07.508Z,96362.78
2023-05-07T16:47:54.011Z,96373.03
2023-05-07T16:50:39.225Z,96364.84
2023-05-07T16:53:24.551Z,96367.94
2023-05-07T16:56:09.788Z,96372.47
2023-05-07T16:58:55.667Z,96375.97
2023-05-07T17:01:42.850Z,96393.28
2023-05-07T17:04:29.950Z,96386.50
2023-05-07T17:07:16.359Z,96376.78
2023-05-07T17:10:02.445Z,96380.63
2023-05-07T17:12:47.867Z,96387.06
2023-05-07T17:15:32.988Z,96376.97
2023-05-07T17:18:18.309Z,96380.44
2023-05-07T17:21:03.532Z,96385.22
2023-05-07T17:23:49.026Z,96383.53
2023-05-07T17:26:36.481Z,96383.38
2023-05-07T17:29:21.988Z,96382.13
2023-05-07T17:32:08.556Z,96386.38
2023-05-07T17:34:54.034Z,96396.06
2023-05-07T17:37:39.451Z,96396.22
2023-05-07T17:40:26.599Z,96385.81
2023-05-07T17:43:11.985Z,96402.13
2023-05-07T17:45:57.486Z,96393.28
2023-05-07T17:48:42.636Z,96408.94
2023-05-07T17:51:36.166Z,96399.22
2023-05-07T17:54:26.272Z,96404.63
2023-05-07T17:57:11.764Z,96402.94
2023-05-07T17:59:58.034Z,96402.66
2023-05-07T18:02:43.256Z,96407.91
2023-05-07T18:05:29.492Z,96416.28
2023-05-07T18:08:16.280Z,96412.16
2023-05-07T18:11:03.116Z,96425.00
2023-05-07T18:13:48.744Z,96427.00
2023-05-07T18:16:34.887Z,96432.63
2023-05-07T18:19:22.325Z,96433.88
2023-05-07T18:22:07.457Z,96440.50
2023-05-07T18:24:55.107Z,96436.81
2023-05-07T18:27:40.561Z,96441.72
2023-05-07T18:30:26.365Z,96443.03
2023-05-07T18:33:11.625Z,96446.88
2023-05-07T18:35:57.652Z,96454.59
2023-05-07T18:38:43.065Z,96451.13
2023-05-07T18:41:28.607Z,96457.59
2023-05-07T18:44:14.007Z,96449.06
2023-05-07T18:47:00.823Z,96448.94
2023-05-07T18:49:47.410Z,96446.50
2023-05-07T18:52:32.707Z,96450.91
2023-05-07T18:55:20.070Z,96446.84
2023-05-07T18:58:06.561Z,96447.84
2023-05-07T19:00:51.799Z,96453.91
2023-05-07T19:03:37.410Z,96450.44
2023-05-07T19:06:22.767Z,96445.97
2023-05-07T19:09:08.169Z,96445.13
2023-05-07T19:11:53.959Z,96448.28
2023-05-07T19:14:43.011Z,96448.41
2023-05-07T19:17:28.280Z,96452.59
2023-05-07T19:20:13.781Z,96458.16
2023-05-07T19:22:59.044Z,96455.03
2023-05-07T19:25:44.630Z,96444.91
2023-05-07T19:28:30.509Z,96453.59
2023-05-07T19:31:23.624Z,96452.50
2023-05-07T19:34:09.205Z,96457.75
2023-05-07T19:36:56.295Z,96462.34
2023-05-07T19:39:41.678Z,96465.31
2023-05-07T19:42:27.287Z,96464.81
2023-05-07T19:45:15.459Z,96462.38
2023-05-07T19:48:01.682Z,96458.13
2023-05-07T19:50:49.814Z,96460.59
2023-05-07T19:53:35.325Z,96455.81
2023-05-07T19:56:22.321Z,96469.47
2023-05-07T19:59:09.470Z,96468.63
2023-05-07T20:01:55.073Z,96469.28
2023-05-07T20:04:40.500Z,96464.22
2023-05-07T20:07:27.142Z,96467.81
2023-05-07T20:10:12.900Z,96462.38
2023-05-07T20:12:58.450Z,96470.28
2023-05-07T20:15:46.924Z,96471.59
2023-05-07T20:18:32.628Z,96464.38
2023-05-07T20:21:17.696Z,96477.50
2023-05-07T20:24:03.227Z,96473.22
2023-05-07T20:26:48.542Z,96479.78
2023-05-07T20:29:34.228Z,96481.09
2023-05-07T20:32:20.470Z,96485.19
2023-05-07T20:35:07.179Z,96488.03
2023-05-07T20:37:52.621Z,96490.16
2023-05-07T20:40:38.016Z,96489.00
2023-05-07T20:43:23.705Z,96487.34
2023-05-07T20:46:09.334Z,96494.28
2023-05-07T20:48:55.124Z,96497.25
2023-05-07T20:51:40.405Z,96496.09
2023-05-07T20:54:28.098Z,96509.41
2023-05-07T20:57:14.469Z,96509.09
2023-05-07T20:59:59.880Z,96508.78
2023-05-07T21:02:45.639Z,96512.88
2023-05-07T21:05:32.532Z,96512.22
2023-05-07T21:08:18.183Z,96513.72
2023-05-07T21:11:03.240Z,96507.63
2023-05-07T21:13:48.648Z,96515.50
2023-05-07T21:16:34.012Z,96510.72
2023-05-07T21:19:19.336Z,96514.53
2023-05-07T21:22:05.319Z,96507.78
2023-05-07T21:24:50.531Z,96521.25
2023-05-07T21:27:35.827Z,96514.69
2023-05-07T21:30:21.201Z,96518.47
2023-05-07T21:33:08.377Z,96522.91
2023-05-07T21:35:54.180Z,96531.13
2023-05-07T21:38:40.389Z,96531.78
2023-05-07T21:41:26.185Z,96531.78
2023-05-07T21:44:11.660Z,96539.34
2023-05-07T21:46:57.051Z,96529.47
2023-05-07T21:49:42.521Z,96544.25
2023-05-07T21:52:27.811Z,96541.81
2023-05-07T21:55:13.289Z,96535.75
2023-05-07T21:58:05.574Z,96538.00
2023-05-07T22:00:51.499Z,96552.97
2023-05-07T22:03:36.826Z,96544.59
2023-05-07T22:06:22.590Z,96547.19
2023-05-07T22:09:07.973Z,96552.28
2023-05-07T22:11:52.998Z,96550.16
2023-05-07T22:14:38.252Z,96546.22
2023-05-07T22:17:24.558Z,96534.41
2023-05-07T22:20:10.775Z,96531.28
2023-05-07T22:22:56.900Z,96531.94
2023-05-07T22:25:42.196Z,96529.47
2023-05-07T22:28:27.418Z,96534.09
2023-05-07T22:31:12.616Z,96537.84
2023-05-07T22:33:58.015Z,96528.16
2023-05-07T22:36:43.276Z,96530.16
2023-05-07T22:39:31.220Z,96532.09
2023-05-07T22:42:16.648Z,96528.97
2023-05-07T22:45:01.929Z,96524.06
2023-05-07T22:47:47.280Z,96532.91
2023-05-07T22:50:37.783Z,96531.59
2023-05-07T22:53:23.700Z,96530.94
2023-05-07T22:56:09.975Z,96531.13
2023-05-07T22:58:55.125Z,96522.09
2023-05-07T23:01:40.714Z,96525.69
2023-05-07T23:04:26.810Z,96528.63
2023-05-07T23:07:12.112Z,96527.66
2023-05-07T23:09:57.555Z,96515.66
2023-05-07T23:12:43.901Z,96516.16
2023-05-07T23:15:29.160Z,96516.97
2023-05-07T23:18:14.514Z,96510.91
2023-05-07T23:20:59.897Z,96511.56
2023-05-07T23:23:45.157Z,96502.53
2023-05-07T23:26:30.429Z,96507.78
2023-05-07T23:29:15.691Z,96507.78
2023-05-07T23:32:01.273Z,96507.13
2023-05-07T23:34:50.288Z,96507.59
2023-05-07T23:37:35.771Z,96507.59
2023-05-07T23:40:20.858Z,96506.59
2023-05-07T23:43:06.003Z,96493.47
2023-05-07T23:45:51.751Z,96498.25
2023-05-07T23:48:37.202Z,96496.13
2023-05-07T23:51:22.540Z,96498.59
2023-05-07T23:54:07.911Z,96495.28
2023-05-07T23:56:53.190Z,96494.81
2023-05-07T23:59:38.490Z,96485.44
